Airfield :
LOGIN :

Register | Disclaimer

   EN    FR    IT 

 










Legend :    VFR   Marginal VFR   IFR   Intensive IFR   Very Intensive IFR
Visi :
Ceiling :
>= 8 km
>= 3000ft
5 to 8 km
1000 to 3000 ft
1500m to 5 km
500 to 1000 ft
800 to 1500m
200 to 500 ft
< 800m
< 200 ft
Symbols :   Thunderstorms  Fog  Heavy snow  Heavy precipitations  Wind > 20 kt
SIGMETs :     Misc.  Thunderstorms  Icing  Turbulence  Mountain Waves  Volcanic Ashes







- Airport Elevation : 302 ft
- IATA code : CGN


EDDK - Cologne Bonn

CURRENT METAR :
  • 190420Z VRB02KT CAVOK 01/M01 Q1020 NOSIG

EXPIRED METARs :
  • 190350Z 03003KT CAVOK 02/M01 Q1021 NOSIG
  • 190320Z 05008KT CAVOK 02/M01 Q1021 NOSIG
  • 190250Z VRB02KT 9999 FEW043 M00/M02 Q1021 NOSIG
  • 190220Z VRB01KT 9999 FEW043 M02/M04 Q1022 NOSIG
  • 190150Z VRB01KT 9999 FEW043 M02/M05 Q1022 NOSIG

TAF TAF EDDK
Valid from the 19 at 00:00 until the 20 at 06:00 UTC


182300Z 1900/2006 VRB02KT 9999 SCT030
BECMG 1900/1903 03005KT
BECMG 1909/1912 06010KT
No reported NOTAMs for that airfield.
1 SIGMET reported for the Langen FIR (EDGG) :
 
Severe icing
EDGG SIGMET 1 VALID 190330/190600 EDZF
EDGG LANGEN FIR SEV ICE FCST WI N5121 E01030 - N5041 E01042 - N5015 E01018 - N5015 E00845 - N5120 E00848 - N5121 E01030 1500FT/5000FT MOV W 05KT NC=



MET'MAP, your aeronautical weather chart ! - Copyright ORBIFLY December 2007 - Disclaimer

ORBIFLY MET'MAP TEAM :

Programming & Development : Alexandra Zaïnal
Concept & Development : Baudouin d'Aumeries
Co-Development & Prog : Marc-Olivier Méhu
Technical & hardware support : Manuel Goepfert

Contact : metmap@orbifly.com




SOURCES & CREDITS :

   NOAA